TFM - Tactical Decision Aid
ID: Runway Winds: CIG/VIS Threshold:

KINK - Wink/Winkler Cnty, TX, US

Updated at: 2143 UTC 01 Dec 2021
Latest TAF at: 1726 UTC 01 Dec 2021

TAF Board

Time2053Z 01/22Z 01/23Z 02/00Z 02/01Z 02/02Z 02/03Z 02/04Z 02/05Z 02/06Z 02/07Z 02/08Z 02/09Z 02/10Z>>
Type OBS PRVL PRVL PRVL PRVL PRVL PRVL PRVL PRVL PRVL PRVL PRVL PRVL PRVL
VIS 10 >6 >6 >6 >6 >6 >6 >6 >6 >6 >6 >6 >6 >6
CIG -- 250 250 250 250 250 250 250 250 250 250 250 250 250
Cover CLR BKN BKN BKN BKN BKN BKN BKN BKN BKN BKN BKN BKN BKN
FltCat VFR VFR VFR VFR VFR VFR VFR VFR VFR VFR VFR VFR VFR VFR
WX -- -- -- -- -- -- -- -- -- -- -- -- -- --
WDir 220 180 180 180 180 180 180 180 180 180 180 180 180 180
WSpd 6 4 4 4 4 4 4 4 4 4 4 4 4 4
WGst -- -- -- -- -- -- -- -- -- -- -- -- -- --
WSHgt -- -- -- -- -- -- -- -- -- -- -- -- -- --
WSDir -- -- -- -- -- -- -- -- -- -- -- -- -- --
WSSpd -- -- -- -- -- -- -- -- -- -- -- -- -- --

TDA Impact Legend

  None Marginal Slight Moderate High
Visibility (sm) >5 3≤X≤5 2≤X<3 1≤X<2 <1
Ceiling (100 ft) >30 10≤X≤30 8≤X<10 4≤X<8 <4
Wind Speed (kt) <15 15≤X<25 25≤X<30 ≥30
Wind Gust (kt) <15 15≤X<25 25≤X<35 ≥35
Weather No Wx Reported VCTS -TS,-FZRA TS,FZRA +TS,+FZRA
TAF
KINK 011726Z 0118/0218 26008KT P6SM SCT200
  FM012200 18004KT P6SM BKN250


METAR
KINK 012053Z AUTO 22006KT 10SM CLR 22/M01 A3013 RMK AO2 SLP182 T02171011 56017
KINK 011953Z AUTO 21004KT 10SM CLR 22/M01 A3014 RMK AO2 SLP184 T02221006
KINK 011853Z AUTO 24008KT 10SM CLR 21/M01 A3016 RMK AO2 SLP191 T02061011

Radar Display
Forecast Discussion